aviador You're here:

YWHA Decoded Metar

WHYALLA AIRPORT in _UNIDENTIFIED
Report Time2017-11-24 01:00:00
UTC Time2017-11-24 02:04:25
Flight Rules vfr VFR
Wind150° at 11 kt
W.Decomp.*RWY 17: 9.8 kt HW 5 kt LCW
RWY 23: 0.6 kt HW 11 kt LCW
W.Rank150° ranks 8
Current wind is above 150° avg. (8.8)
Visibility9999 m
Phenomena:N/A
Clouds:Scattered 017 Hf
Expected CloudBase > 1,200 ft AGL from Temp-Dew spread
CeilingNone
Temp22°C (ISA +7)
Dew Point19°C (83% RH)
AAT21.3°C
QNH1012 hPa
Density Alt1,194 ft
Elevation43 ft
Report Wrong Elevation
Raw Report
YWHA 240100Z AUTO 15011KT 9999 // SCT017 22/19 Q1012=

Extra information for YWHA:More info

Metar Taf Metar & Taf Last 4 Metars F.Rules Stats Wind Profile Meteogram Temp Stats Airport Information Weather charts Add Link Nearby VenuesMetar ALERT Operation Metar Decoded Social comments